sensor_id;sensor_type;location;lat;lon;timestamp;P1;durP1;ratioP1;P2;durP2;ratioP2
4047;SDS011;2038;51.728;6.674;2023-04-06T00:02:17;16.77;;;12.50;;
4047;SDS011;2038;51.728;6.674;2023-04-06T00:04:43;19.97;;;12.63;;
4047;SDS011;2038;51.728;6.674;2023-04-06T00:07:10;21.00;;;12.50;;
4047;SDS011;2038;51.728;6.674;2023-04-06T00:09:36;18.70;;;12.33;;
4047;SDS011;2038;51.728;6.674;2023-04-06T00:12:02;21.03;;;13.57;;
4047;SDS011;2038;51.728;6.674;2023-04-06T00:14:30;20.50;;;12.67;;
4047;SDS011;2038;51.728;6.674;2023-04-06T00:17:05;17.97;;;12.17;;
4047;SDS011;2038;51.728;6.674;2023-04-06T00:19:31;17.97;;;12.30;;
4047;SDS011;2038;51.728;6.674;2023-04-06T00:21:58;23.13;;;13.43;;
4047;SDS011;2038;51.728;6.674;2023-04-06T00:24:24;18.70;;;13.30;;
4047;SDS011;2038;51.728;6.674;2023-04-06T00:26:50;18.20;;;12.10;;
4047;SDS011;2038;51.728;6.674;2023-04-06T00:29:16;19.10;;;12.80;;
4047;SDS011;2038;51.728;6.674;2023-04-06T00:31:43;19.40;;;12.40;;
4047;SDS011;2038;51.728;6.674;2023-04-06T00:34:09;14.90;;;10.87;;
4047;SDS011;2038;51.728;6.674;2023-04-06T00:36:36;17.00;;;11.73;;
4047;SDS011;2038;51.728;6.674;2023-04-06T00:39:02;19.43;;;12.63;;
4047;SDS011;2038;51.728;6.674;2023-04-06T00:41:28;19.17;;;12.77;;
4047;SDS011;2038;51.728;6.674;2023-04-06T00:43:55;17.57;;;11.57;;
4047;SDS011;2038;51.728;6.674;2023-04-06T00:46:21;17.60;;;12.60;;
4047;SDS011;2038;51.728;6.674;2023-04-06T00:48:47;20.50;;;12.07;;
4047;SDS011;2038;51.728;6.674;2023-04-06T00:51:14;19.50;;;12.30;;
4047;SDS011;2038;51.728;6.674;2023-04-06T00:53:40;19.00;;;12.57;;
4047;SDS011;2038;51.728;6.674;2023-04-06T00:56:06;19.23;;;12.80;;
4047;SDS011;2038;51.728;6.674;2023-04-06T00:58:34;18.83;;;12.80;;
4047;SDS011;2038;51.728;6.674;2023-04-06T01:01:03;24.60;;;13.53;;
4047;SDS011;2038;51.728;6.674;2023-04-06T01:03:30;19.40;;;13.87;;
4047;SDS011;2038;51.728;6.674;2023-04-06T01:05:56;18.00;;;12.93;;
4047;SDS011;2038;51.728;6.674;2023-04-06T01:08:23;21.40;;;11.13;;
4047;SDS011;2038;51.728;6.674;2023-04-06T01:10:50;18.90;;;12.40;;
4047;SDS011;2038;51.728;6.674;2023-04-06T01:13:16;21.80;;;13.73;;
4047;SDS011;2038;51.728;6.674;2023-04-06T01:15:42;18.73;;;12.40;;
4047;SDS011;2038;51.728;6.674;2023-04-06T01:18:09;17.10;;;13.27;;
4047;SDS011;2038;51.728;6.674;2023-04-06T01:20:35;22.23;;;14.50;;
4047;SDS011;2038;51.728;6.674;2023-04-06T01:23:02;19.63;;;13.87;;
4047;SDS011;2038;51.728;6.674;2023-04-06T01:25:28;20.53;;;13.83;;
4047;SDS011;2038;51.728;6.674;2023-04-06T01:27:54;20.13;;;13.20;;
4047;SDS011;2038;51.728;6.674;2023-04-06T01:30:21;19.60;;;13.33;;
4047;SDS011;2038;51.728;6.674;2023-04-06T01:32:47;23.60;;;13.73;;
4047;SDS011;2038;51.728;6.674;2023-04-06T01:35:13;21.77;;;13.10;;
4047;SDS011;2038;51.728;6.674;2023-04-06T01:37:40;22.00;;;12.30;;
4047;SDS011;2038;51.728;6.674;2023-04-06T01:40:06;22.30;;;14.50;;
4047;SDS011;2038;51.728;6.674;2023-04-06T01:42:34;19.60;;;13.40;;
4047;SDS011;2038;51.728;6.674;2023-04-06T01:45:00;20.40;;;13.83;;
4047;SDS011;2038;51.728;6.674;2023-04-06T01:47:27;18.40;;;13.67;;
4047;SDS011;2038;51.728;6.674;2023-04-06T01:49:53;23.83;;;14.77;;
4047;SDS011;2038;51.728;6.674;2023-04-06T01:52:19;22.90;;;15.63;;
4047;SDS011;2038;51.728;6.674;2023-04-06T01:54:45;20.77;;;13.27;;
4047;SDS011;2038;51.728;6.674;2023-04-06T01:57:12;22.63;;;14.40;;
4047;SDS011;2038;51.728;6.674;2023-04-06T01:59:38;18.73;;;13.50;;
4047;SDS011;2038;51.728;6.674;2023-04-06T02:02:04;21.53;;;14.37;;
4047;SDS011;2038;51.728;6.674;2023-04-06T02:04:30;18.10;;;13.40;;
4047;SDS011;2038;51.728;6.674;2023-04-06T02:06:57;23.60;;;14.27;;
4047;SDS011;2038;51.728;6.674;2023-04-06T02:09:23;21.63;;;15.70;;
4047;SDS011;2038;51.728;6.674;2023-04-06T02:11:49;18.00;;;12.63;;
4047;SDS011;2038;51.728;6.674;2023-04-06T02:14:15;18.77;;;13.13;;
4047;SDS011;2038;51.728;6.674;2023-04-06T02:16:42;22.90;;;14.30;;
4047;SDS011;2038;51.728;6.674;2023-04-06T02:19:08;21.30;;;14.60;;
4047;SDS011;2038;51.728;6.674;2023-04-06T02:21:34;25.60;;;14.40;;
4047;SDS011;2038;51.728;6.674;2023-04-06T02:24:01;23.60;;;13.40;;
4047;SDS011;2038;51.728;6.674;2023-04-06T02:26:27;27.80;;;13.80;;
4047;SDS011;2038;51.728;6.674;2023-04-06T02:28:53;21.00;;;14.10;;
4047;SDS011;2038;51.728;6.674;2023-04-06T02:31:20;19.87;;;14.30;;
4047;SDS011;2038;51.728;6.674;2023-04-06T02:33:46;24.80;;;14.30;;
4047;SDS011;2038;51.728;6.674;2023-04-06T02:36:12;23.50;;;13.20;;
4047;SDS011;2038;51.728;6.674;2023-04-06T02:38:38;19.13;;;13.90;;
4047;SDS011;2038;51.728;6.674;2023-04-06T02:41:05;21.70;;;13.47;;
4047;SDS011;2038;51.728;6.674;2023-04-06T02:43:31;29.70;;;14.33;;
4047;SDS011;2038;51.728;6.674;2023-04-06T02:45:57;24.87;;;15.97;;
4047;SDS011;2038;51.728;6.674;2023-04-06T02:48:23;18.40;;;14.10;;
4047;SDS011;2038;51.728;6.674;2023-04-06T02:50:50;19.53;;;14.47;;
4047;SDS011;2038;51.728;6.674;2023-04-06T02:53:16;19.07;;;13.37;;
4047;SDS011;2038;51.728;6.674;2023-04-06T02:55:42;28.50;;;15.13;;
4047;SDS011;2038;51.728;6.674;2023-04-06T02:58:08;21.73;;;14.80;;
4047;SDS011;2038;51.728;6.674;2023-04-06T03:00:35;25.00;;;15.60;;
4047;SDS011;2038;51.728;6.674;2023-04-06T03:03:02;27.37;;;16.70;;
4047;SDS011;2038;51.728;6.674;2023-04-06T03:05:28;23.03;;;13.53;;
4047;SDS011;2038;51.728;6.674;2023-04-06T03:07:55;19.30;;;14.47;;
4047;SDS011;2038;51.728;6.674;2023-04-06T03:10:21;24.40;;;14.77;;
4047;SDS011;2038;51.728;6.674;2023-04-06T03:12:48;24.53;;;14.90;;
4047;SDS011;2038;51.728;6.674;2023-04-06T03:15:14;20.63;;;14.20;;
4047;SDS011;2038;51.728;6.674;2023-04-06T03:17:40;23.47;;;14.73;;
4047;SDS011;2038;51.728;6.674;2023-04-06T03:20:07;24.90;;;15.63;;
4047;SDS011;2038;51.728;6.674;2023-04-06T03:22:33;21.47;;;14.70;;
4047;SDS011;2038;51.728;6.674;2023-04-06T03:25:00;19.17;;;13.57;;
4047;SDS011;2038;51.728;6.674;2023-04-06T03:27:26;19.23;;;12.97;;
4047;SDS011;2038;51.728;6.674;2023-04-06T03:29:52;24.87;;;16.33;;
4047;SDS011;2038;51.728;6.674;2023-04-06T03:32:18;25.83;;;15.30;;
4047;SDS011;2038;51.728;6.674;2023-04-06T03:34:45;25.07;;;15.33;;
4047;SDS011;2038;51.728;6.674;2023-04-06T03:37:11;25.57;;;16.07;;
4047;SDS011;2038;51.728;6.674;2023-04-06T03:39:37;27.83;;;14.63;;
4047;SDS011;2038;51.728;6.674;2023-04-06T03:42:03;21.13;;;14.50;;
4047;SDS011;2038;51.728;6.674;2023-04-06T03:44:30;27.00;;;14.57;;
4047;SDS011;2038;51.728;6.674;2023-04-06T03:46:56;27.83;;;15.83;;
4047;SDS011;2038;51.728;6.674;2023-04-06T03:49:22;26.97;;;15.47;;
4047;SDS011;2038;51.728;6.674;2023-04-06T03:51:49;22.43;;;15.47;;
4047;SDS011;2038;51.728;6.674;2023-04-06T03:54:15;21.40;;;15.03;;
4047;SDS011;2038;51.728;6.674;2023-04-06T03:56:41;25.90;;;15.90;;
4047;SDS011;2038;51.728;6.674;2023-04-06T03:59:08;29.60;;;17.27;;
4047;SDS011;2038;51.728;6.674;2023-04-06T04:01:34;29.50;;;16.37;;
4047;SDS011;2038;51.728;6.674;2023-04-06T04:04:00;19.70;;;14.60;;
4047;SDS011;2038;51.728;6.674;2023-04-06T04:06:26;21.50;;;14.80;;
4047;SDS011;2038;51.728;6.674;2023-04-06T04:08:53;32.70;;;17.00;;
4047;SDS011;2038;51.728;6.674;2023-04-06T04:11:19;23.73;;;15.77;;
4047;SDS011;2038;51.728;6.674;2023-04-06T04:13:45;27.47;;;15.53;;
4047;SDS011;2038;51.728;6.674;2023-04-06T04:16:11;22.77;;;17.17;;
4047;SDS011;2038;51.728;6.674;2023-04-06T04:18:37;24.90;;;17.10;;
4047;SDS011;2038;51.728;6.674;2023-04-06T04:21:04;25.67;;;15.97;;
4047;SDS011;2038;51.728;6.674;2023-04-06T04:23:30;20.60;;;13.83;;
4047;SDS011;2038;51.728;6.674;2023-04-06T04:25:57;26.80;;;17.03;;
4047;SDS011;2038;51.728;6.674;2023-04-06T04:28:23;18.53;;;15.10;;
4047;SDS011;2038;51.728;6.674;2023-04-06T04:30:49;23.50;;;16.80;;
4047;SDS011;2038;51.728;6.674;2023-04-06T04:33:16;24.90;;;15.30;;
4047;SDS011;2038;51.728;6.674;2023-04-06T04:35:42;23.43;;;16.17;;
4047;SDS011;2038;51.728;6.674;2023-04-06T04:38:08;22.20;;;14.37;;
4047;SDS011;2038;51.728;6.674;2023-04-06T04:40:34;33.40;;;18.50;;
4047;SDS011;2038;51.728;6.674;2023-04-06T04:43:00;27.60;;;18.53;;
4047;SDS011;2038;51.728;6.674;2023-04-06T04:45:27;31.80;;;16.57;;
4047;SDS011;2038;51.728;6.674;2023-04-06T04:47:53;27.37;;;16.93;;
4047;SDS011;2038;51.728;6.674;2023-04-06T04:50:19;30.50;;;16.33;;
4047;SDS011;2038;51.728;6.674;2023-04-06T04:52:46;25.47;;;16.07;;
4047;SDS011;2038;51.728;6.674;2023-04-06T04:55:13;24.20;;;15.13;;
4047;SDS011;2038;51.728;6.674;2023-04-06T04:57:39;36.47;;;18.33;;
4047;SDS011;2038;51.728;6.674;2023-04-06T05:00:05;25.60;;;16.47;;
4047;SDS011;2038;51.728;6.674;2023-04-06T05:02:32;30.90;;;17.00;;
4047;SDS011;2038;51.728;6.674;2023-04-06T05:04:58;29.40;;;18.80;;
4047;SDS011;2038;51.728;6.674;2023-04-06T05:07:25;25.00;;;16.70;;
4047;SDS011;2038;51.728;6.674;2023-04-06T05:09:52;28.13;;;17.17;;
4047;SDS011;2038;51.728;6.674;2023-04-06T05:12:18;34.07;;;19.17;;
4047;SDS011;2038;51.728;6.674;2023-04-06T05:14:45;26.60;;;16.97;;
4047;SDS011;2038;51.728;6.674;2023-04-06T05:17:11;29.57;;;17.60;;
4047;SDS011;2038;51.728;6.674;2023-04-06T05:19:37;27.03;;;18.50;;
4047;SDS011;2038;51.728;6.674;2023-04-06T05:22:04;28.00;;;16.23;;
4047;SDS011;2038;51.728;6.674;2023-04-06T05:24:30;31.23;;;17.10;;
4047;SDS011;2038;51.728;6.674;2023-04-06T05:26:56;31.97;;;19.53;;
4047;SDS011;2038;51.728;6.674;2023-04-06T05:29:23;31.20;;;19.10;;
4047;SDS011;2038;51.728;6.674;2023-04-06T05:31:50;25.27;;;17.50;;
4047;SDS011;2038;51.728;6.674;2023-04-06T05:34:16;28.87;;;17.43;;
4047;SDS011;2038;51.728;6.674;2023-04-06T05:36:43;25.50;;;16.87;;
4047;SDS011;2038;51.728;6.674;2023-04-06T05:39:09;24.37;;;16.33;;
4047;SDS011;2038;51.728;6.674;2023-04-06T05:41:37;27.97;;;18.60;;
4047;SDS011;2038;51.728;6.674;2023-04-06T05:44:03;29.13;;;17.60;;
4047;SDS011;2038;51.728;6.674;2023-04-06T05:46:29;25.17;;;17.13;;
4047;SDS011;2038;51.728;6.674;2023-04-06T05:48:56;35.33;;;19.60;;
4047;SDS011;2038;51.728;6.674;2023-04-06T05:51:22;28.07;;;19.23;;
4047;SDS011;2038;51.728;6.674;2023-04-06T05:53:48;33.80;;;18.90;;
4047;SDS011;2038;51.728;6.674;2023-04-06T05:56:15;32.93;;;18.10;;
4047;SDS011;2038;51.728;6.674;2023-04-06T05:58:41;32.13;;;20.47;;
4047;SDS011;2038;51.728;6.674;2023-04-06T06:01:07;32.60;;;19.33;;
4047;SDS011;2038;51.728;6.674;2023-04-06T06:03:34;30.63;;;18.87;;
4047;SDS011;2038;51.728;6.674;2023-04-06T06:06:01;28.07;;;18.40;;
4047;SDS011;2038;51.728;6.674;2023-04-06T06:08:29;34.93;;;18.17;;
4047;SDS011;2038;51.728;6.674;2023-04-06T06:10:55;35.57;;;19.50;;
4047;SDS011;2038;51.728;6.674;2023-04-06T06:13:23;31.77;;;18.70;;
4047;SDS011;2038;51.728;6.674;2023-04-06T06:15:49;26.90;;;18.50;;
4047;SDS011;2038;51.728;6.674;2023-04-06T06:18:16;30.23;;;18.90;;
4047;SDS011;2038;51.728;6.674;2023-04-06T06:20:42;24.13;;;16.90;;
4047;SDS011;2038;51.728;6.674;2023-04-06T06:23:08;29.30;;;17.90;;
4047;SDS011;2038;51.728;6.674;2023-04-06T06:25:35;25.73;;;18.10;;
4047;SDS011;2038;51.728;6.674;2023-04-06T06:28:01;23.20;;;15.70;;
4047;SDS011;2038;51.728;6.674;2023-04-06T06:30:27;23.37;;;16.60;;
4047;SDS011;2038;51.728;6.674;2023-04-06T06:32:54;23.50;;;16.23;;
4047;SDS011;2038;51.728;6.674;2023-04-06T06:35:20;29.13;;;17.07;;
4047;SDS011;2038;51.728;6.674;2023-04-06T06:37:46;22.20;;;16.27;;
4047;SDS011;2038;51.728;6.674;2023-04-06T06:40:12;30.73;;;16.87;;
4047;SDS011;2038;51.728;6.674;2023-04-06T06:42:40;25.87;;;14.90;;
4047;SDS011;2038;51.728;6.674;2023-04-06T06:45:08;21.13;;;16.00;;
4047;SDS011;2038;51.728;6.674;2023-04-06T06:47:35;26.13;;;16.17;;
4047;SDS011;2038;51.728;6.674;2023-04-06T06:50:01;21.70;;;15.50;;
4047;SDS011;2038;51.728;6.674;2023-04-06T06:52:28;21.23;;;15.60;;
4047;SDS011;2038;51.728;6.674;2023-04-06T06:54:54;30.53;;;16.63;;
4047;SDS011;2038;51.728;6.674;2023-04-06T06:57:21;24.40;;;14.80;;
4047;SDS011;2038;51.728;6.674;2023-04-06T06:59:47;20.30;;;13.80;;
4047;SDS011;2038;51.728;6.674;2023-04-06T07:02:14;22.17;;;16.27;;
4047;SDS011;2038;51.728;6.674;2023-04-06T07:04:40;22.87;;;16.27;;
4047;SDS011;2038;51.728;6.674;2023-04-06T07:07:06;23.37;;;14.73;;
4047;SDS011;2038;51.728;6.674;2023-04-06T07:09:33;29.57;;;18.43;;
4047;SDS011;2038;51.728;6.674;2023-04-06T07:12:00;27.77;;;16.77;;
4047;SDS011;2038;51.728;6.674;2023-04-06T07:14:27;24.43;;;17.30;;
4047;SDS011;2038;51.728;6.674;2023-04-06T07:16:53;23.80;;;15.83;;
4047;SDS011;2038;51.728;6.674;2023-04-06T07:19:19;25.77;;;15.90;;
4047;SDS011;2038;51.728;6.674;2023-04-06T07:21:45;24.70;;;15.97;;
4047;SDS011;2038;51.728;6.674;2023-04-06T07:24:14;21.73;;;14.77;;
4047;SDS011;2038;51.728;6.674;2023-04-06T07:26:42;25.50;;;16.30;;
4047;SDS011;2038;51.728;6.674;2023-04-06T07:29:08;26.43;;;16.63;;
4047;SDS011;2038;51.728;6.674;2023-04-06T07:31:34;24.77;;;16.90;;
4047;SDS011;2038;51.728;6.674;2023-04-06T07:34:01;28.23;;;16.80;;
4047;SDS011;2038;51.728;6.674;2023-04-06T07:36:27;22.77;;;15.83;;
4047;SDS011;2038;51.728;6.674;2023-04-06T07:38:53;24.50;;;15.97;;
4047;SDS011;2038;51.728;6.674;2023-04-06T07:41:19;29.93;;;15.60;;
4047;SDS011;2038;51.728;6.674;2023-04-06T07:43:46;28.50;;;16.97;;
4047;SDS011;2038;51.728;6.674;2023-04-06T07:46:13;25.07;;;16.90;;
4047;SDS011;2038;51.728;6.674;2023-04-06T07:48:39;30.67;;;15.90;;
4047;SDS011;2038;51.728;6.674;2023-04-06T07:51:06;20.03;;;14.63;;
4047;SDS011;2038;51.728;6.674;2023-04-06T07:53:33;24.10;;;17.07;;
4047;SDS011;2038;51.728;6.674;2023-04-06T07:55:59;27.30;;;16.43;;
4047;SDS011;2038;51.728;6.674;2023-04-06T07:58:26;27.67;;;16.50;;
4047;SDS011;2038;51.728;6.674;2023-04-06T08:00:52;24.53;;;16.23;;
4047;SDS011;2038;51.728;6.674;2023-04-06T08:03:19;26.50;;;16.57;;
4047;SDS011;2038;51.728;6.674;2023-04-06T08:05:49;20.87;;;15.23;;
4047;SDS011;2038;51.728;6.674;2023-04-06T08:08:17;28.90;;;18.37;;
4047;SDS011;2038;51.728;6.674;2023-04-06T08:10:46;23.90;;;15.60;;
4047;SDS011;2038;51.728;6.674;2023-04-06T08:13:13;29.93;;;17.67;;
4047;SDS011;2038;51.728;6.674;2023-04-06T08:15:40;24.00;;;17.10;;
4047;SDS011;2038;51.728;6.674;2023-04-06T08:18:07;26.57;;;17.37;;
4047;SDS011;2038;51.728;6.674;2023-04-06T08:20:34;26.10;;;15.80;;
4047;SDS011;2038;51.728;6.674;2023-04-06T08:23:00;26.03;;;16.53;;
4047;SDS011;2038;51.728;6.674;2023-04-06T08:25:27;27.77;;;17.00;;
4047;SDS011;2038;51.728;6.674;2023-04-06T08:27:53;30.43;;;16.20;;
4047;SDS011;2038;51.728;6.674;2023-04-06T08:30:19;24.93;;;16.50;;
4047;SDS011;2038;51.728;6.674;2023-04-06T08:32:46;26.60;;;16.40;;
4047;SDS011;2038;51.728;6.674;2023-04-06T08:35:12;26.00;;;16.33;;
4047;SDS011;2038;51.728;6.674;2023-04-06T08:37:39;24.87;;;16.43;;
4047;SDS011;2038;51.728;6.674;2023-04-06T08:40:06;33.77;;;15.93;;
4047;SDS011;2038;51.728;6.674;2023-04-06T08:42:32;28.13;;;15.30;;
4047;SDS011;2038;51.728;6.674;2023-04-06T08:45:06;26.53;;;16.37;;
4047;SDS011;2038;51.728;6.674;2023-04-06T08:47:34;35.57;;;17.60;;
4047;SDS011;2038;51.728;6.674;2023-04-06T08:50:03;33.10;;;16.73;;
4047;SDS011;2038;51.728;6.674;2023-04-06T08:52:31;30.73;;;17.00;;
4047;SDS011;2038;51.728;6.674;2023-04-06T08:54:58;30.70;;;17.80;;
4047;SDS011;2038;51.728;6.674;2023-04-06T08:57:25;28.70;;;17.63;;
4047;SDS011;2038;51.728;6.674;2023-04-06T08:59:52;30.27;;;17.83;;
4047;SDS011;2038;51.728;6.674;2023-04-06T09:02:21;30.63;;;18.37;;
4047;SDS011;2038;51.728;6.674;2023-04-06T09:04:48;33.83;;;17.97;;
4047;SDS011;2038;51.728;6.674;2023-04-06T09:07:18;31.90;;;18.67;;
4047;SDS011;2038;51.728;6.674;2023-04-06T09:09:44;25.53;;;16.50;;
4047;SDS011;2038;51.728;6.674;2023-04-06T09:12:29;31.97;;;16.03;;
4047;SDS011;2038;51.728;6.674;2023-04-06T09:14:57;37.63;;;17.87;;
4047;SDS011;2038;51.728;6.674;2023-04-06T09:17:26;35.87;;;18.20;;
4047;SDS011;2038;51.728;6.674;2023-04-06T09:20:01;28.43;;;15.60;;
4047;SDS011;2038;51.728;6.674;2023-04-06T09:22:36;28.70;;;16.70;;
4047;SDS011;2038;51.728;6.674;2023-04-06T09:25:04;32.00;;;16.80;;
4047;SDS011;2038;51.728;6.674;2023-04-06T09:27:34;29.37;;;17.40;;
4047;SDS011;2038;51.728;6.674;2023-04-06T09:30:03;24.10;;;15.40;;
4047;SDS011;2038;51.728;6.674;2023-04-06T09:32:45;30.93;;;17.53;;
4047;SDS011;2038;51.728;6.674;2023-04-06T09:35:17;28.73;;;17.27;;
4047;SDS011;2038;51.728;6.674;2023-04-06T09:37:47;23.40;;;17.10;;
4047;SDS011;2038;51.728;6.674;2023-04-06T09:40:16;28.30;;;16.90;;
4047;SDS011;2038;51.728;6.674;2023-04-06T09:42:47;28.53;;;16.97;;
4047;SDS011;2038;51.728;6.674;2023-04-06T09:45:17;34.00;;;17.40;;
4047;SDS011;2038;51.728;6.674;2023-04-06T09:47:44;31.80;;;16.90;;
4047;SDS011;2038;51.728;6.674;2023-04-06T09:50:12;27.03;;;16.33;;
4047;SDS011;2038;51.728;6.674;2023-04-06T09:52:42;24.60;;;16.90;;
4047;SDS011;2038;51.728;6.674;2023-04-06T09:55:20;31.07;;;17.57;;
4047;SDS011;2038;51.728;6.674;2023-04-06T09:58:05;26.17;;;16.30;;
4047;SDS011;2038;51.728;6.674;2023-04-06T10:03:48;29.10;;;19.43;;
4047;SDS011;2038;51.728;6.674;2023-04-06T10:06:27;33.70;;;20.50;;
4047;SDS011;2038;51.728;6.674;2023-04-06T10:09:01;34.43;;;19.00;;
4047;SDS011;2038;51.728;6.674;2023-04-06T10:11:32;31.43;;;18.33;;
4047;SDS011;2038;51.728;6.674;2023-04-06T10:13:59;32.97;;;19.50;;
4047;SDS011;2038;51.728;6.674;2023-04-06T10:16:26;31.67;;;19.67;;
4047;SDS011;2038;51.728;6.674;2023-04-06T10:18:55;29.50;;;17.70;;
4047;SDS011;2038;51.728;6.674;2023-04-06T10:21:30;34.63;;;21.70;;
4047;SDS011;2038;51.728;6.674;2023-04-06T10:24:00;27.73;;;17.47;;
4047;SDS011;2038;51.728;6.674;2023-04-06T10:26:34;31.30;;;18.43;;
4047;SDS011;2038;51.728;6.674;2023-04-06T10:29:04;28.40;;;16.00;;
4047;SDS011;2038;51.728;6.674;2023-04-06T10:31:31;30.63;;;17.13;;
4047;SDS011;2038;51.728;6.674;2023-04-06T10:33:58;36.77;;;17.43;;
4047;SDS011;2038;51.728;6.674;2023-04-06T10:36:27;27.50;;;18.57;;
4047;SDS011;2038;51.728;6.674;2023-04-06T10:39:07;28.93;;;20.50;;
4047;SDS011;2038;51.728;6.674;2023-04-06T10:41:33;38.67;;;21.80;;
4047;SDS011;2038;51.728;6.674;2023-04-06T10:44:05;32.83;;;19.10;;
4047;SDS011;2038;51.728;6.674;2023-04-06T10:46:32;26.70;;;18.00;;
4047;SDS011;2038;51.728;6.674;2023-04-06T10:49:11;27.77;;;18.30;;
4047;SDS011;2038;51.728;6.674;2023-04-06T10:51:38;26.93;;;18.77;;
4047;SDS011;2038;51.728;6.674;2023-04-06T10:54:06;32.07;;;19.17;;
4047;SDS011;2038;51.728;6.674;2023-04-06T10:56:33;30.00;;;18.87;;
4047;SDS011;2038;51.728;6.674;2023-04-06T10:59:04;28.93;;;18.77;;
4047;SDS011;2038;51.728;6.674;2023-04-06T11:01:32;26.73;;;17.43;;
4047;SDS011;2038;51.728;6.674;2023-04-06T11:03:59;28.80;;;19.23;;
4047;SDS011;2038;51.728;6.674;2023-04-06T11:06:26;27.93;;;18.40;;
4047;SDS011;2038;51.728;6.674;2023-04-06T11:08:55;29.80;;;17.53;;
4047;SDS011;2038;51.728;6.674;2023-04-06T11:11:24;28.93;;;19.13;;
4047;SDS011;2038;51.728;6.674;2023-04-06T11:13:52;29.90;;;17.70;;
4047;SDS011;2038;51.728;6.674;2023-04-06T11:16:24;32.07;;;18.13;;
4047;SDS011;2038;51.728;6.674;2023-04-06T11:19:00;29.53;;;17.80;;
4047;SDS011;2038;51.728;6.674;2023-04-06T11:21:31;28.60;;;17.90;;
4047;SDS011;2038;51.728;6.674;2023-04-06T11:24:05;31.33;;;17.73;;
4047;SDS011;2038;51.728;6.674;2023-04-06T11:26:36;37.03;;;18.73;;
4047;SDS011;2038;51.728;6.674;2023-04-06T11:29:11;27.37;;;17.10;;
4047;SDS011;2038;51.728;6.674;2023-04-06T11:31:48;29.10;;;19.33;;
4047;SDS011;2038;51.728;6.674;2023-04-06T11:34:23;28.07;;;19.03;;
4047;SDS011;2038;51.728;6.674;2023-04-06T11:36:54;30.57;;;18.50;;
4047;SDS011;2038;51.728;6.674;2023-04-06T11:39:24;36.97;;;19.17;;
4047;SDS011;2038;51.728;6.674;2023-04-06T11:41:54;30.20;;;18.27;;
4047;SDS011;2038;51.728;6.674;2023-04-06T11:44:31;36.77;;;18.77;;
4047;SDS011;2038;51.728;6.674;2023-04-06T11:47:06;28.87;;;18.13;;
4047;SDS011;2038;51.728;6.674;2023-04-06T11:49:38;29.13;;;16.90;;
4047;SDS011;2038;51.728;6.674;2023-04-06T11:52:26;29.77;;;17.67;;
4047;SDS011;2038;51.728;6.674;2023-04-06T11:54:53;33.57;;;17.50;;
4047;SDS011;2038;51.728;6.674;2023-04-06T11:57:21;26.50;;;18.10;;
4047;SDS011;2038;51.728;6.674;2023-04-06T11:59:51;34.53;;;17.87;;
4047;SDS011;2038;51.728;6.674;2023-04-06T12:02:18;28.97;;;18.80;;
4047;SDS011;2038;51.728;6.674;2023-04-06T12:04:45;28.43;;;17.53;;
4047;SDS011;2038;51.728;6.674;2023-04-06T12:07:11;34.27;;;18.73;;
4047;SDS011;2038;51.728;6.674;2023-04-06T12:09:37;27.73;;;19.63;;
4047;SDS011;2038;51.728;6.674;2023-04-06T12:12:04;29.50;;;18.30;;
4047;SDS011;2038;51.728;6.674;2023-04-06T12:14:30;29.57;;;19.40;;
4047;SDS011;2038;51.728;6.674;2023-04-06T12:16:57;31.87;;;19.33;;
4047;SDS011;2038;51.728;6.674;2023-04-06T12:19:23;37.73;;;20.53;;
4047;SDS011;2038;51.728;6.674;2023-04-06T12:21:51;33.50;;;18.87;;
4047;SDS011;2038;51.728;6.674;2023-04-06T12:24:19;28.73;;;19.10;;
4047;SDS011;2038;51.728;6.674;2023-04-06T12:26:45;31.30;;;18.50;;
4047;SDS011;2038;51.728;6.674;2023-04-06T12:29:12;27.13;;;18.10;;
4047;SDS011;2038;51.728;6.674;2023-04-06T12:31:38;24.73;;;16.10;;
4047;SDS011;2038;51.728;6.674;2023-04-06T12:34:05;37.90;;;19.00;;
4047;SDS011;2038;51.728;6.674;2023-04-06T12:36:32;26.17;;;17.47;;
4047;SDS011;2038;51.728;6.674;2023-04-06T12:38:59;30.10;;;17.80;;
4047;SDS011;2038;51.728;6.674;2023-04-06T12:41:26;27.30;;;16.27;;
4047;SDS011;2038;51.728;6.674;2023-04-06T12:43:54;28.30;;;15.90;;
4047;SDS011;2038;51.728;6.674;2023-04-06T12:46:20;27.83;;;15.80;;
4047;SDS011;2038;51.728;6.674;2023-04-06T12:48:47;25.87;;;16.00;;
4047;SDS011;2038;51.728;6.674;2023-04-06T12:51:14;27.73;;;15.97;;
4047;SDS011;2038;51.728;6.674;2023-04-06T12:53:42;31.93;;;18.00;;
4047;SDS011;2038;51.728;6.674;2023-04-06T12:56:15;31.80;;;16.30;;
4047;SDS011;2038;51.728;6.674;2023-04-06T12:58:43;30.97;;;16.40;;
4047;SDS011;2038;51.728;6.674;2023-04-06T13:01:10;24.33;;;14.90;;
4047;SDS011;2038;51.728;6.674;2023-04-06T13:03:38;27.67;;;16.47;;
4047;SDS011;2038;51.728;6.674;2023-04-06T13:06:05;25.00;;;16.70;;
4047;SDS011;2038;51.728;6.674;2023-04-06T13:08:33;25.57;;;13.67;;
4047;SDS011;2038;51.728;6.674;2023-04-06T13:11:01;29.77;;;15.30;;
4047;SDS011;2038;51.728;6.674;2023-04-06T13:13:27;20.87;;;15.50;;
4047;SDS011;2038;51.728;6.674;2023-04-06T13:15:58;21.13;;;13.33;;
4047;SDS011;2038;51.728;6.674;2023-04-06T13:18:27;20.10;;;13.03;;
4047;SDS011;2038;51.728;6.674;2023-04-06T13:20:55;16.20;;;10.80;;
4047;SDS011;2038;51.728;6.674;2023-04-06T13:23:22;18.70;;;11.77;;
4047;SDS011;2038;51.728;6.674;2023-04-06T13:25:56;18.60;;;11.90;;
4047;SDS011;2038;51.728;6.674;2023-04-06T13:28:28;19.47;;;12.73;;
4047;SDS011;2038;51.728;6.674;2023-04-06T13:30:55;19.37;;;13.07;;
4047;SDS011;2038;51.728;6.674;2023-04-06T13:33:23;19.07;;;13.23;;
4047;SDS011;2038;51.728;6.674;2023-04-06T13:35:50;18.17;;;10.83;;
4047;SDS011;2038;51.728;6.674;2023-04-06T13:38:16;15.47;;;11.43;;
4047;SDS011;2038;51.728;6.674;2023-04-06T13:40:43;20.43;;;12.03;;
4047;SDS011;2038;51.728;6.674;2023-04-06T13:43:09;12.43;;;8.80;;
4047;SDS011;2038;51.728;6.674;2023-04-06T13:45:36;13.80;;;7.80;;
4047;SDS011;2038;51.728;6.674;2023-04-06T13:48:03;12.57;;;8.17;;
4047;SDS011;2038;51.728;6.674;2023-04-06T13:50:30;10.07;;;6.50;;
4047;SDS011;2038;51.728;6.674;2023-04-06T13:52:57;11.07;;;6.93;;
4047;SDS011;2038;51.728;6.674;2023-04-06T13:55:23;11.30;;;7.90;;
4047;SDS011;2038;51.728;6.674;2023-04-06T13:57:50;11.80;;;8.17;;
4047;SDS011;2038;51.728;6.674;2023-04-06T14:00:16;14.30;;;7.47;;
4047;SDS011;2038;51.728;6.674;2023-04-06T14:02:44;12.93;;;8.00;;
4047;SDS011;2038;51.728;6.674;2023-04-06T14:05:10;13.43;;;8.00;;
4047;SDS011;2038;51.728;6.674;2023-04-06T14:07:37;15.03;;;9.67;;
4047;SDS011;2038;51.728;6.674;2023-04-06T14:10:03;12.93;;;8.50;;
4047;SDS011;2038;51.728;6.674;2023-04-06T14:12:39;16.13;;;8.93;;
4047;SDS011;2038;51.728;6.674;2023-04-06T14:15:08;12.80;;;8.50;;
4047;SDS011;2038;51.728;6.674;2023-04-06T14:17:36;14.20;;;9.27;;
4047;SDS011;2038;51.728;6.674;2023-04-06T14:20:03;14.07;;;9.47;;
4047;SDS011;2038;51.728;6.674;2023-04-06T14:22:30;15.97;;;10.43;;
4047;SDS011;2038;51.728;6.674;2023-04-06T14:24:57;11.83;;;8.53;;
4047;SDS011;2038;51.728;6.674;2023-04-06T14:27:23;13.67;;;10.37;;
4047;SDS011;2038;51.728;6.674;2023-04-06T14:29:50;14.90;;;10.40;;
4047;SDS011;2038;51.728;6.674;2023-04-06T14:32:17;13.80;;;9.97;;
4047;SDS011;2038;51.728;6.674;2023-04-06T14:34:45;16.93;;;10.53;;
4047;SDS011;2038;51.728;6.674;2023-04-06T14:37:11;13.90;;;10.73;;
4047;SDS011;2038;51.728;6.674;2023-04-06T14:39:38;15.40;;;11.17;;
4047;SDS011;2038;51.728;6.674;2023-04-06T14:42:04;15.00;;;10.50;;
4047;SDS011;2038;51.728;6.674;2023-04-06T14:44:32;14.97;;;10.73;;
4047;SDS011;2038;51.728;6.674;2023-04-06T14:47:00;16.90;;;10.87;;
4047;SDS011;2038;51.728;6.674;2023-04-06T14:49:28;15.90;;;11.30;;
4047;SDS011;2038;51.728;6.674;2023-04-06T14:51:55;18.40;;;11.60;;
4047;SDS011;2038;51.728;6.674;2023-04-06T14:54:22;16.43;;;11.13;;